createdAt,value
2023-01-01T00:04:53.173Z,3.42
2023-01-01T00:10:14.924Z,3.34
2023-01-01T00:15:18.686Z,3.33
2023-01-01T00:20:22.177Z,3.24
2023-01-01T00:25:25.926Z,3.22
2023-01-01T00:30:29.815Z,3.19
2023-01-01T00:35:34.048Z,3.22
2023-01-01T00:40:37.581Z,3.19
2023-01-01T00:45:40.685Z,3.30
2023-01-01T00:50:43.918Z,3.23
2023-01-01T00:55:49.807Z,3.35
2023-01-01T01:00:55.171Z,3.34
2023-01-01T01:06:04.653Z,3.34
2023-01-01T01:11:17.285Z,3.39
2023-01-01T01:16:34.812Z,3.41
2023-01-01T01:21:38.763Z,3.54
2023-01-01T01:26:42.651Z,3.63
2023-01-01T01:31:46.687Z,3.61
2023-01-01T01:36:50.083Z,3.55
2023-01-01T01:41:53.307Z,3.54
2023-01-01T01:46:58.023Z,3.47
2023-01-01T01:52:02.126Z,3.38
2023-01-01T01:57:09.021Z,3.15
2023-01-01T02:02:43.132Z,3.19
2023-01-01T02:07:47.660Z,3.16
2023-01-01T02:12:51.277Z,3.06
2023-01-01T02:18:03.613Z,3.02
2023-01-01T02:23:18.655Z,3.00
2023-01-01T02:28:24.507Z,2.99
2023-01-01T02:33:30.126Z,2.94
2023-01-01T02:38:44.958Z,2.95
2023-01-01T02:43:48.827Z,3.06
2023-01-01T02:48:53.778Z,3.10
2023-01-01T02:54:06.050Z,3.22
2023-01-01T03:00:06.050Z,3.12
2023-01-01T03:05:19.028Z,3.13
2023-01-01T03:10:25.036Z,3.11
2023-01-01T03:15:39.161Z,3.10
2023-01-01T03:20:47.753Z,3.01
2023-01-01T03:25:53.997Z,3.03
2023-01-01T03:30:58.081Z,3.03
2023-01-01T03:36:07.061Z,2.98
2023-01-01T03:41:52.278Z,2.98
2023-01-01T03:46:55.954Z,3.00
2023-01-01T03:52:17.452Z,2.97
2023-01-01T03:57:46.541Z,3.02
2023-01-01T04:03:15.978Z,3.03
2023-01-01T04:08:32.579Z,2.92
2023-01-01T04:13:49.435Z,2.99
2023-01-01T04:18:52.575Z,2.96
2023-01-01T04:23:56.165Z,2.95
2023-01-01T04:28:59.780Z,2.91
2023-01-01T04:34:03.218Z,2.90
2023-01-01T04:39:07.036Z,2.91
2023-01-01T04:44:10.339Z,2.85
2023-01-01T04:49:14.349Z,2.89
2023-01-01T04:54:17.398Z,2.81
2023-01-01T04:59:20.560Z,2.72
2023-01-01T05:04:24.559Z,2.69
2023-01-01T05:09:27.747Z,2.70
2023-01-01T05:14:31.961Z,2.74
2023-01-01T05:19:35.749Z,2.66
2023-01-01T05:24:39.637Z,2.66
2023-01-01T05:29:43.093Z,2.48
2023-01-01T05:34:46.272Z,2.43
2023-01-01T05:39:49.889Z,2.44
2023-01-01T05:44:53.693Z,2.48
2023-01-01T05:49:57.294Z,2.40
2023-01-01T05:55:01.410Z,2.50
2023-01-01T06:00:05.855Z,2.56
2023-01-01T06:05:10.329Z,2.62
2023-01-01T06:10:13.462Z,2.69
2023-01-01T06:15:17.550Z,2.82
2023-01-01T06:20:21.509Z,2.92
2023-01-01T06:25:24.756Z,3.00
2023-01-01T06:30:28.782Z,3.04
2023-01-01T06:35:32.277Z,3.15
2023-01-01T06:40:37.316Z,3.30
2023-01-01T06:45:41.036Z,3.47
2023-01-01T06:50:44.243Z,3.76
2023-01-01T06:55:56.725Z,4.00
2023-01-01T07:01:09.845Z,4.29
2023-01-01T07:06:13.369Z,4.78
2023-01-01T07:11:17.132Z,5.34
2023-01-01T07:16:20.926Z,9.05
2023-01-01T07:21:39.565Z,13.34
2023-01-01T07:26:43.472Z,15.48
2023-01-01T07:31:47.760Z,17.28
2023-01-01T07:36:51.294Z,18.90
2023-01-01T07:41:55.465Z,20.52
2023-01-01T07:47:06.488Z,21.52
2023-01-01T07:52:10.290Z,22.34
2023-01-01T07:57:13.687Z,22.85
2023-01-01T08:02:17.257Z,23.48
2023-01-01T08:07:20.955Z,23.86
2023-01-01T08:12:24.456Z,24.37
2023-01-01T08:17:27.621Z,24.65
2023-01-01T08:22:32.184Z,24.33
2023-01-01T08:27:35.629Z,24.76
2023-01-01T08:32:38.856Z,25.41
2023-01-01T08:37:42.060Z,25.77
2023-01-01T08:42:45.300Z,24.57
2023-01-01T08:47:48.943Z,24.12
2023-01-01T08:52:52.080Z,24.20
2023-01-01T08:57:55.770Z,24.83
2023-01-01T09:02:59.997Z,23.59
2023-01-01T09:08:04.611Z,23.75
2023-01-01T09:13:08.279Z,24.95
2023-01-01T09:18:12.526Z,24.42
2023-01-01T09:23:16.008Z,23.60
2023-01-01T09:28:25.132Z,25.02
2023-01-01T09:33:29.909Z,23.84
2023-01-01T09:38:33.149Z,23.78
2023-01-01T09:44:10.564Z,22.98
2023-01-01T09:49:24.208Z,23.75
2023-01-01T09:54:33.828Z,23.57
2023-01-01T09:59:37.001Z,25.17
2023-01-01T10:05:04.119Z,23.56
2023-01-01T10:10:07.537Z,22.98
2023-01-01T10:15:23.547Z,22.13
2023-01-01T10:20:37.784Z,22.94
2023-01-01T10:25:43.145Z,22.36
2023-01-01T10:30:46.205Z,22.18
2023-01-01T10:35:58.778Z,22.08
2023-01-01T10:41:15.220Z,21.97
2023-01-01T10:46:31.635Z,21.88
2023-01-01T10:51:38.660Z,21.05
2023-01-01T10:56:42.523Z,20.62
2023-01-01T11:01:45.677Z,18.79
2023-01-01T11:06:49.059Z,18.27
2023-01-01T11:12:01.987Z,18.47
2023-01-01T11:17:11.251Z,18.58
2023-01-01T11:22:36.418Z,18.88
2023-01-01T11:27:39.941Z,18.81
2023-01-01T11:32:43.202Z,19.25
2023-01-01T11:37:48.182Z,18.10
2023-01-01T11:42:58.924Z,18.41
2023-01-01T11:48:05.887Z,19.15
2023-01-01T11:53:22.265Z,19.33
2023-01-01T11:58:51.875Z,19.78
2023-01-01T12:04:03.007Z,19.76
2023-01-01T12:09:27.845Z,20.32
2023-01-01T12:15:07.918Z,20.15
2023-01-01T12:20:23.583Z,20.37
2023-01-01T12:25:46.971Z,20.26
2023-01-01T12:31:11.333Z,20.55
2023-01-01T12:36:44.787Z,19.74
2023-01-01T12:42:20.569Z,21.24
2023-01-01T12:47:38.583Z,20.66
2023-01-01T12:53:26.667Z,20.56
2023-01-01T12:58:33.198Z,22.10
2023-01-01T13:04:08.093Z,21.84
2023-01-01T13:09:34.848Z,20.78
2023-01-01T13:14:40.081Z,21.03
2023-01-01T13:19:43.484Z,21.14
2023-01-01T13:25:12.208Z,22.67
2023-01-01T13:30:44.274Z,22.27
2023-01-01T13:35:47.437Z,23.21
2023-01-01T13:40:52.039Z,22.16
2023-01-01T13:46:14.013Z,21.84
2023-01-01T13:52:05.200Z,21.91
2023-01-01T13:57:37.717Z,22.16
2023-01-01T14:02:59.509Z,20.96
2023-01-01T14:08:04.282Z,22.54
2023-01-01T14:13:10.649Z,22.84
2023-01-01T14:18:17.279Z,21.77
2023-01-01T14:23:37.087Z,21.27
2023-01-01T14:28:40.719Z,18.91
2023-01-01T14:33:45.262Z,16.62
2023-01-01T14:38:51.709Z,15.85
2023-01-01T14:44:05.165Z,15.06
2023-01-01T14:49:15.107Z,14.42
2023-01-01T14:54:21.540Z,13.90
2023-01-01T14:59:27.012Z,13.47
2023-01-01T15:04:31.149Z,13.17
2023-01-01T15:09:35.185Z,12.94
2023-01-01T15:14:45.945Z,12.58
2023-01-01T15:20:07.982Z,12.20
2023-01-01T15:25:16.891Z,11.94
2023-01-01T15:30:26.264Z,11.68
2023-01-01T15:35:33.477Z,11.30
2023-01-01T15:40:38.253Z,11.02
2023-01-01T15:45:44.316Z,10.65
2023-01-01T15:50:50.524Z,10.25
2023-01-01T15:55:59.845Z,9.91
2023-01-01T16:01:07.109Z,9.50
2023-01-01T16:06:17.431Z,9.27
2023-01-01T16:11:21.173Z,8.82
2023-01-01T16:16:30.842Z,8.47
2023-01-01T16:21:34.804Z,8.07
2023-01-01T16:26:38.301Z,7.93
2023-01-01T16:31:42.538Z,7.66
2023-01-01T16:36:46.574Z,7.42
2023-01-01T16:41:50.347Z,7.24
2023-01-01T16:46:54.345Z,7.06
2023-01-01T16:51:57.808Z,6.93
2023-01-01T16:57:00.938Z,6.82
2023-01-01T17:02:04.221Z,6.74
2023-01-01T17:07:07.803Z,6.58
2023-01-01T17:12:11.380Z,6.48
2023-01-01T17:17:15.663Z,6.27
2023-01-01T17:22:18.938Z,6.25
2023-01-01T17:27:22.498Z,6.28
2023-01-01T17:32:26.067Z,6.14
2023-01-01T17:37:29.665Z,6.10
2023-01-01T17:42:33.073Z,5.97
2023-01-01T17:47:36.887Z,5.88
2023-01-01T17:52:40.223Z,5.89
2023-01-01T17:57:43.960Z,5.63
2023-01-01T18:02:47.075Z,5.76
2023-01-01T18:07:52.789Z,5.63
2023-01-01T18:12:56.462Z,5.51
2023-01-01T18:18:00.779Z,5.47
2023-01-01T18:23:03.982Z,5.37
2023-01-01T18:28:08.270Z,5.37
2023-01-01T18:33:11.338Z,5.26
2023-01-01T18:38:14.947Z,5.20
2023-01-01T18:43:25.378Z,5.12
2023-01-01T18:48:29.251Z,5.04
2023-01-01T18:53:32.838Z,4.95
2023-01-01T18:58:36.068Z,4.86
2023-01-01T19:03:41.541Z,4.85
2023-01-01T19:08:45.781Z,4.74
2023-01-01T19:13:50.675Z,4.64
2023-01-01T19:18:57.826Z,4.73
2023-01-01T19:24:03.245Z,4.74
2023-01-01T19:29:17.571Z,4.72
2023-01-01T19:34:22.709Z,4.59
2023-01-01T19:39:26.095Z,4.57
2023-01-01T19:44:29.246Z,4.49
2023-01-01T19:49:33.035Z,4.45
2023-01-01T19:54:36.388Z,4.39
2023-01-01T19:59:39.914Z,4.40
2023-01-01T20:04:43.802Z,4.20
2023-01-01T20:09:47.499Z,4.24
2023-01-01T20:14:52.127Z,4.20
2023-01-01T20:19:55.588Z,4.09
2023-01-01T20:24:59.396Z,4.03
2023-01-01T20:30:02.540Z,4.09
2023-01-01T20:35:05.869Z,4.04
2023-01-01T20:40:12.541Z,4.02
2023-01-01T20:45:15.751Z,3.97
2023-01-01T20:50:19.491Z,3.89
2023-01-01T20:55:22.719Z,3.86
2023-01-01T21:00:25.921Z,3.83
2023-01-01T21:05:29.737Z,3.75
2023-01-01T21:10:32.915Z,3.80
2023-01-01T21:15:36.615Z,3.82
2023-01-01T21:20:46.100Z,3.76
2023-01-01T21:25:52.245Z,3.79
2023-01-01T21:30:57.812Z,3.81
2023-01-01T21:36:24.286Z,3.76
2023-01-01T21:41:29.250Z,3.62
2023-01-01T21:46:38.234Z,3.59
2023-01-01T21:51:56.119Z,3.52
2023-01-01T21:57:02.777Z,3.46
2023-01-01T22:02:07.134Z,3.46
2023-01-01T22:12:58.337Z,3.40
2023-01-01T22:18:23.643Z,3.29
2023-01-01T22:23:40.970Z,3.26
2023-01-01T22:28:46.317Z,3.26
2023-01-01T22:33:51.646Z,3.27
2023-01-01T22:39:28.103Z,3.29
2023-01-01T22:44:33.849Z,3.21
2023-01-01T22:49:40.225Z,3.17
2023-01-01T22:54:44.045Z,3.15
2023-01-01T22:59:48.203Z,3.17
2023-01-01T23:04:51.585Z,3.14
2023-01-01T23:10:01.557Z,3.19
2023-01-01T23:15:23.756Z,3.17
2023-01-01T23:20:27.653Z,3.14
2023-01-01T23:25:31.033Z,3.19
2023-01-01T23:30:35.160Z,3.17
2023-01-01T23:35:39.057Z,3.15
2023-01-01T23:40:42.532Z,3.10
2023-01-01T23:45:47.179Z,3.08
2023-01-01T23:50:51.193Z,3.04
2023-01-01T23:55:54.291Z,3.05
